Terminal Aerodrome Forecast
Issued by NWS

Home | Current Version | Previous Version | Text Only | Print | Product List | Glossary On
Versions: 1 2 3 4 5 6 7 8 9 10 11 12 13 14 15 16 17 18
494
FTUS43 KIND 260549 AAA
TAFHUF
TAF AMD
KHUF 260549Z 2606/2706 VRB03KT 2SM BR SCT200
     FM261200 VRB03KT P6SM SCT200
     FM261500 16008KT P6SM SCT250
     FM261800 16009KT P6SM BKN090
     FM270200 18006KT P6SM BKN030=

USA.gov is the U.S. government's official web portal to all federal, state and local government web resources and services.